createdAt,value
2023-03-08T00:00:10.301Z,5.90
2023-03-08T00:02:37.359Z,5.90
2023-03-08T00:05:05.052Z,6.00
2023-03-08T00:07:32.562Z,6.00
2023-03-08T00:09:59.448Z,6.00
2023-03-08T00:12:26.262Z,6.00
2023-03-08T00:14:55.246Z,6.00
2023-03-08T00:17:22.215Z,6.00
2023-03-08T00:19:51.422Z,6.00
2023-03-08T00:22:18.229Z,6.00
2023-03-08T00:24:45.029Z,6.00
2023-03-08T00:27:11.790Z,6.00
2023-03-08T00:29:38.560Z,6.00
2023-03-08T00:32:05.625Z,6.00
2023-03-08T00:34:32.437Z,6.00
2023-03-08T00:36:59.678Z,5.90
2023-03-08T00:39:26.406Z,5.90
2023-03-08T00:41:54.407Z,5.90
2023-03-08T00:44:22.329Z,5.90
2023-03-08T00:46:49.296Z,5.90
2023-03-08T00:49:16.057Z,5.90
2023-03-08T00:51:42.836Z,5.90
2023-03-08T00:54:09.651Z,5.90
2023-03-08T00:56:36.397Z,5.80
2023-03-08T00:59:03.535Z,5.80
2023-03-08T01:01:30.461Z,5.80
2023-03-08T01:03:57.527Z,5.80
2023-03-08T01:06:24.345Z,5.80
2023-03-08T01:08:51.316Z,5.80
2023-03-08T01:11:21.622Z,5.70
2023-03-08T01:13:49.599Z,5.80
2023-03-08T01:16:25.953Z,5.80
2023-03-08T01:18:52.792Z,5.70
2023-03-08T01:21:22.195Z,5.70
2023-03-08T01:23:49.139Z,5.70
2023-03-08T01:26:20.167Z,5.70
2023-03-08T01:28:47.106Z,5.70
2023-03-08T01:31:18.131Z,5.70
2023-03-08T01:33:45.697Z,5.70
2023-03-08T01:36:17.475Z,5.70
2023-03-08T01:38:44.576Z,5.70
2023-03-08T01:41:17.741Z,5.70
2023-03-08T01:43:46.588Z,5.60
2023-03-08T01:46:33.631Z,5.60
2023-03-08T01:49:06.560Z,5.60
2023-03-08T01:51:39.685Z,5.60
2023-03-08T01:54:11.764Z,5.60
2023-03-08T01:56:40.276Z,5.50
2023-03-08T01:59:07.207Z,5.50
2023-03-08T02:01:34.961Z,5.50
2023-03-08T02:04:02.691Z,5.40
2023-03-08T02:06:29.792Z,5.40
2023-03-08T02:08:56.845Z,5.40
2023-03-08T02:11:25.056Z,5.40
2023-03-08T02:13:52.994Z,5.40
2023-03-08T02:16:21.531Z,5.40
2023-03-08T02:18:57.125Z,5.30
2023-03-08T02:21:24.284Z,5.40
2023-03-08T02:23:51.047Z,5.40
2023-03-08T02:26:18.339Z,5.30
2023-03-08T02:28:45.706Z,5.30
2023-03-08T02:31:13.304Z,5.30
2023-03-08T02:33:40.171Z,5.30
2023-03-08T02:36:09.623Z,5.30
2023-03-08T02:38:37.461Z,5.30
2023-03-08T02:41:04.844Z,5.30
2023-03-08T02:43:31.648Z,5.30
2023-03-08T02:45:58.714Z,5.30
2023-03-08T02:48:25.477Z,5.30
2023-03-08T02:50:52.268Z,5.30
2023-03-08T02:53:19.105Z,5.30
2023-03-08T02:55:48.340Z,5.30
2023-03-08T02:58:15.018Z,5.30
2023-03-08T03:00:41.738Z,5.30
2023-03-08T03:03:08.540Z,5.40
2023-03-08T03:05:35.314Z,5.40
2023-03-08T03:08:02.127Z,5.30
2023-03-08T03:10:28.926Z,5.30
2023-03-08T03:12:56.052Z,5.30
2023-03-08T03:15:22.964Z,5.30
2023-03-08T03:17:49.787Z,5.30
2023-03-08T03:20:17.954Z,5.20
2023-03-08T03:22:47.056Z,5.30
2023-03-08T03:25:13.906Z,5.20
2023-03-08T03:27:43.296Z,5.20
2023-03-08T03:30:10.874Z,5.10
2023-03-08T03:32:37.697Z,5.10
2023-03-08T03:35:04.828Z,5.10
2023-03-08T03:37:33.909Z,5.10
2023-03-08T03:40:00.884Z,5.00
2023-03-08T03:42:27.666Z,5.00
2023-03-08T03:44:54.429Z,5.00
2023-03-08T03:47:21.241Z,4.90
2023-03-08T03:49:47.957Z,5.00
2023-03-08T03:52:14.745Z,5.00
2023-03-08T03:54:41.430Z,5.00
2023-03-08T03:57:08.246Z,5.00
2023-03-08T03:59:35.105Z,5.10
2023-03-08T04:02:01.890Z,5.00
2023-03-08T04:04:28.608Z,5.00
2023-03-08T04:06:55.373Z,5.00
2023-03-08T04:09:22.095Z,5.00
2023-03-08T04:11:49.056Z,5.10
2023-03-08T04:14:15.938Z,5.00
2023-03-08T04:16:42.752Z,5.00
2023-03-08T04:19:14.691Z,5.00
2023-03-08T04:21:41.439Z,5.00
2023-03-08T04:24:09.125Z,5.10
2023-03-08T04:26:36.595Z,5.10
2023-03-08T04:29:06.184Z,5.00
2023-03-08T04:31:35.492Z,5.00
2023-03-08T04:34:03.993Z,4.90
2023-03-08T04:36:31.249Z,4.90
2023-03-08T04:38:58.401Z,4.90
2023-03-08T04:41:26.107Z,4.90
2023-03-08T04:43:55.080Z,4.80
2023-03-08T04:46:24.963Z,4.90
2023-03-08T04:48:56.219Z,4.80
2023-03-08T04:51:26.746Z,4.80
2023-03-08T04:53:53.776Z,4.70
2023-03-08T04:56:21.064Z,4.80
2023-03-08T04:58:48.251Z,4.70
2023-03-08T05:01:20.379Z,4.70
2023-03-08T05:03:49.749Z,4.70
2023-03-08T05:06:17.201Z,4.70
2023-03-08T05:08:44.400Z,4.60
2023-03-08T05:11:17.536Z,4.50
2023-03-08T05:13:45.594Z,4.60
2023-03-08T05:16:12.619Z,4.50
2023-03-08T05:18:39.548Z,4.40
2023-03-08T05:21:22.528Z,4.40
2023-03-08T05:23:50.442Z,4.40
2023-03-08T05:26:18.144Z,4.40
2023-03-08T05:28:45.607Z,4.40
2023-03-08T05:31:20.767Z,4.50
2023-03-08T05:33:51.421Z,4.50
2023-03-08T05:36:18.714Z,4.50
2023-03-08T05:38:45.944Z,4.50
2023-03-08T05:41:14.821Z,4.50
2023-03-08T05:43:42.060Z,4.50
2023-03-08T05:46:12.566Z,4.50
2023-03-08T05:48:39.429Z,4.50
2023-03-08T05:51:14.591Z,4.60
2023-03-08T05:53:42.209Z,4.60
2023-03-08T05:56:20.650Z,4.60
2023-03-08T05:58:48.447Z,4.40
2023-03-08T06:01:30.029Z,4.40
2023-03-08T06:03:59.218Z,4.40
2023-03-08T06:06:27.562Z,4.40
2023-03-08T06:08:56.527Z,4.50
2023-03-08T06:11:23.986Z,4.50
2023-03-08T06:13:50.743Z,4.50
2023-03-08T06:16:17.554Z,4.50
2023-03-08T06:18:44.871Z,4.50
2023-03-08T06:21:14.654Z,4.50
2023-03-08T06:23:42.064Z,4.50
2023-03-08T06:26:09.838Z,4.50
2023-03-08T06:28:37.247Z,4.50
2023-03-08T06:31:04.279Z,4.40
2023-03-08T06:33:32.779Z,4.20
2023-03-08T06:36:02.334Z,4.20
2023-03-08T06:38:33.223Z,4.30
2023-03-08T06:41:00.291Z,4.20
2023-03-08T06:43:27.862Z,4.20
2023-03-08T06:45:54.976Z,4.20
2023-03-08T06:48:22.082Z,4.10
2023-03-08T06:50:49.024Z,4.00
2023-03-08T06:53:15.877Z,4.00
2023-03-08T06:55:42.969Z,4.00
2023-03-08T06:58:09.730Z,4.10
2023-03-08T07:00:36.686Z,4.10
2023-03-08T07:03:03.494Z,4.00
2023-03-08T07:05:30.640Z,4.00
2023-03-08T07:07:57.677Z,4.00
2023-03-08T07:10:24.664Z,3.90
2023-03-08T07:12:56.210Z,4.00
2023-03-08T07:15:23.947Z,4.00
2023-03-08T07:17:55.621Z,3.90
2023-03-08T07:20:24.231Z,3.90
2023-03-08T07:22:52.182Z,4.00
2023-03-08T07:25:20.246Z,4.00
2023-03-08T07:27:46.977Z,4.10
2023-03-08T07:30:16.102Z,4.00
2023-03-08T07:32:45.061Z,4.10
2023-03-08T07:35:14.526Z,4.10
2023-03-08T07:37:46.206Z,4.10
2023-03-08T07:40:16.135Z,4.20
2023-03-08T07:42:43.853Z,4.10
2023-03-08T07:45:12.245Z,4.00
2023-03-08T07:47:40.539Z,4.10
2023-03-08T07:50:08.392Z,4.10
2023-03-08T07:52:35.187Z,4.20
2023-03-08T07:55:03.044Z,4.20
2023-03-08T07:57:29.885Z,4.20
2023-03-08T07:59:56.836Z,4.30
2023-03-08T08:02:23.524Z,4.40
2023-03-08T08:04:50.842Z,4.50
2023-03-08T08:07:17.683Z,4.60
2023-03-08T08:09:44.435Z,4.60
2023-03-08T08:12:11.699Z,4.70
2023-03-08T08:14:38.651Z,4.70
2023-03-08T08:17:05.835Z,4.70
2023-03-08T08:19:32.769Z,4.80
2023-03-08T08:22:00.324Z,4.70
2023-03-08T08:24:27.814Z,4.70
2023-03-08T08:26:57.039Z,4.70
2023-03-08T08:29:23.863Z,4.80
2023-03-08T08:31:52.853Z,4.80
2023-03-08T08:34:20.476Z,4.80
2023-03-08T08:36:47.456Z,4.90
2023-03-08T08:39:14.432Z,4.90
2023-03-08T08:41:42.364Z,4.90
2023-03-08T08:44:09.245Z,5.00
2023-03-08T08:46:38.191Z,5.00
2023-03-08T08:49:05.606Z,5.00
2023-03-08T08:51:32.746Z,5.10
2023-03-08T08:53:59.576Z,5.10
2023-03-08T08:56:28.906Z,5.10
2023-03-08T08:59:02.371Z,5.20
2023-03-08T09:01:32.017Z,5.20
2023-03-08T09:03:59.655Z,5.30
2023-03-08T09:06:27.551Z,5.30
2023-03-08T09:08:57.028Z,5.30
2023-03-08T09:11:25.206Z,5.20
2023-03-08T09:13:52.223Z,5.20
2023-03-08T09:16:22.107Z,5.20
2023-03-08T09:18:49.661Z,5.20
2023-03-08T09:21:17.146Z,5.20
2023-03-08T09:23:43.956Z,5.20
2023-03-08T09:26:11.363Z,5.20
2023-03-08T09:28:38.620Z,5.30
2023-03-08T09:31:16.910Z,5.20
2023-03-08T09:33:50.335Z,5.10
2023-03-08T09:36:17.110Z,5.10
2023-03-08T09:38:44.223Z,5.20
2023-03-08T09:41:41.957Z,5.30
2023-03-08T09:44:14.246Z,5.40
2023-03-08T09:46:56.797Z,5.40
2023-03-08T09:49:29.921Z,5.50
2023-03-08T09:52:18.468Z,5.50
2023-03-08T09:54:46.128Z,5.50
2023-03-08T09:57:37.211Z,5.50
2023-03-08T10:00:12.135Z,5.60
2023-03-08T10:03:03.055Z,5.60
2023-03-08T10:05:55.563Z,5.60
2023-03-08T10:08:50.054Z,5.70
2023-03-08T10:11:25.973Z,5.60
2023-03-08T10:13:56.480Z,5.50
2023-03-08T10:16:27.066Z,5.50
2023-03-08T10:19:22.288Z,5.50
2023-03-08T10:21:51.007Z,5.40
2023-03-08T10:24:33.959Z,5.50
2023-03-08T10:27:19.146Z,5.60
2023-03-08T10:29:55.195Z,5.60
2023-03-08T10:32:23.270Z,5.60
2023-03-08T10:34:50.614Z,5.70
2023-03-08T10:37:20.306Z,5.70
2023-03-08T10:39:55.147Z,5.70
2023-03-08T10:42:25.033Z,5.80
2023-03-08T10:45:10.951Z,5.80
2023-03-08T10:47:38.756Z,5.80
2023-03-08T10:50:21.114Z,5.90
2023-03-08T10:52:54.684Z,5.90
2023-03-08T10:55:34.183Z,5.90
2023-03-08T10:58:02.306Z,5.90
2023-03-08T11:00:33.616Z,5.90
2023-03-08T11:03:21.243Z,5.90
2023-03-08T11:05:53.663Z,5.90
2023-03-08T11:08:24.729Z,5.90
2023-03-08T11:11:12.337Z,5.90
2023-03-08T11:13:45.358Z,5.90
2023-03-08T11:16:42.883Z,5.90
2023-03-08T11:19:33.451Z,6.00
2023-03-08T11:22:21.416Z,6.00
2023-03-08T11:25:01.031Z,6.10
2023-03-08T11:28:05.855Z,6.20
2023-03-08T11:31:10.925Z,6.30
2023-03-08T11:33:53.238Z,6.30
2023-03-08T11:36:38.859Z,6.30
2023-03-08T11:39:25.422Z,6.40
2023-03-08T11:42:10.953Z,6.40
2023-03-08T11:45:08.631Z,6.30
2023-03-08T11:48:22.539Z,6.30
2023-03-08T11:51:22.263Z,6.30
2023-03-08T11:54:21.788Z,6.40
2023-03-08T11:56:55.407Z,6.40
2023-03-08T11:59:47.122Z,6.50
2023-03-08T12:02:29.793Z,6.60
2023-03-08T12:05:08.828Z,6.60
2023-03-08T12:08:04.535Z,6.60
2023-03-08T12:10:45.962Z,6.50
2023-03-08T12:13:20.637Z,6.50
2023-03-08T12:16:18.919Z,6.50
2023-03-08T12:18:51.673Z,6.50
2023-03-08T12:21:33.561Z,6.50
2023-03-08T12:24:11.224Z,6.50
2023-03-08T12:26:49.676Z,6.60
2023-03-08T12:29:31.123Z,6.60
2023-03-08T12:31:59.278Z,6.60
2023-03-08T12:34:30.297Z,6.60
2023-03-08T12:36:57.122Z,6.70
2023-03-08T12:39:35.935Z,6.60
2023-03-08T12:42:11.780Z,6.50
2023-03-08T12:44:39.636Z,6.60
2023-03-08T12:47:13.257Z,6.60
2023-03-08T12:49:56.720Z,6.60
2023-03-08T12:52:35.073Z,6.70
2023-03-08T12:55:01.858Z,6.70
2023-03-08T12:57:43.213Z,6.60
2023-03-08T13:00:35.384Z,6.60
2023-03-08T13:03:13.004Z,6.60
2023-03-08T13:05:47.861Z,6.60
2023-03-08T13:08:14.490Z,6.60
2023-03-08T13:11:03.834Z,6.70
2023-03-08T13:13:41.758Z,6.70
2023-03-08T13:16:37.716Z,6.60
2023-03-08T13:19:13.612Z,6.60
2023-03-08T13:21:47.265Z,6.60
2023-03-08T13:24:16.923Z,6.60
2023-03-08T13:26:52.454Z,6.70
2023-03-08T13:29:21.159Z,6.80
2023-03-08T13:31:48.621Z,6.80
2023-03-08T13:34:33.095Z,6.80
2023-03-08T13:37:00.813Z,6.80
2023-03-08T13:39:30.310Z,6.80
2023-03-08T13:42:11.012Z,6.90
2023-03-08T13:44:38.631Z,6.90
2023-03-08T13:47:23.013Z,6.90
2023-03-08T13:49:52.077Z,6.90
2023-03-08T13:52:22.910Z,6.80
2023-03-08T13:54:55.498Z,6.80
2023-03-08T13:57:36.298Z,6.80
2023-03-08T14:00:28.693Z,6.80
2023-03-08T14:02:58.021Z,6.80
2023-03-08T14:05:33.810Z,6.70
2023-03-08T14:08:29.421Z,6.70
2023-03-08T14:11:13.230Z,6.70
2023-03-08T14:13:42.620Z,6.70
2023-03-08T14:16:11.697Z,6.80
2023-03-08T14:18:41.816Z,6.80
2023-03-08T14:21:16.466Z,6.80
2023-03-08T14:23:53.841Z,6.80
2023-03-08T14:26:36.557Z,6.80
2023-03-08T14:29:19.421Z,6.80
2023-03-08T14:32:01.974Z,6.80
2023-03-08T14:34:38.070Z,6.80
2023-03-08T14:37:07.618Z,6.90
2023-03-08T14:39:36.509Z,6.90
2023-03-08T14:42:10.766Z,6.90
2023-03-08T14:44:37.478Z,7.00
2023-03-08T14:47:26.491Z,7.00
2023-03-08T14:50:09.445Z,7.10
2023-03-08T14:52:44.466Z,7.10
2023-03-08T14:55:34.291Z,7.10
2023-03-08T14:58:12.019Z,7.10
2023-03-08T15:00:53.266Z,7.10
2023-03-08T15:03:21.531Z,7.10
2023-03-08T15:05:49.947Z,7.10
2023-03-08T15:08:17.517Z,7.10
2023-03-08T15:10:44.736Z,7.20
2023-03-08T15:13:23.384Z,7.10
2023-03-08T15:15:50.988Z,7.10
2023-03-08T15:18:18.957Z,7.10
2023-03-08T15:20:49.489Z,7.10
2023-03-08T15:23:28.647Z,7.10
2023-03-08T15:25:57.634Z,7.10
2023-03-08T15:28:25.380Z,7.00
2023-03-08T15:30:54.731Z,7.10
2023-03-08T15:33:23.821Z,7.10
2023-03-08T15:35:52.104Z,7.00
2023-03-08T15:38:20.072Z,7.10
2023-03-08T15:40:46.875Z,7.00
2023-03-08T15:43:14.956Z,6.90
2023-03-08T15:45:42.480Z,6.90
2023-03-08T15:48:15.069Z,6.90
2023-03-08T15:50:43.408Z,6.80
2023-03-08T15:53:12.044Z,6.80
2023-03-08T15:55:40.069Z,6.90
2023-03-08T15:58:08.657Z,6.90
2023-03-08T16:00:36.229Z,6.90
2023-03-08T16:03:05.506Z,6.90
2023-03-08T16:05:33.490Z,7.00
2023-03-08T16:08:02.837Z,7.00
2023-03-08T16:10:33.215Z,7.10
2023-03-08T16:12:59.996Z,7.10
2023-03-08T16:15:26.897Z,7.10
2023-03-08T16:17:53.584Z,7.20
2023-03-08T16:20:23.199Z,7.30
2023-03-08T16:22:50.850Z,7.40
2023-03-08T16:25:17.853Z,7.40
2023-03-08T16:27:44.697Z,7.50
2023-03-08T16:30:12.767Z,7.60
2023-03-08T16:32:39.757Z,7.60
2023-03-08T16:35:06.895Z,7.70
2023-03-08T16:37:36.173Z,7.70
2023-03-08T16:40:05.918Z,7.70
2023-03-08T16:42:36.540Z,7.80
2023-03-08T16:45:03.862Z,7.80
2023-03-08T16:47:33.332Z,7.90
2023-03-08T16:50:01.059Z,7.90
2023-03-08T16:52:28.723Z,7.90
2023-03-08T16:54:56.629Z,8.00
2023-03-08T16:57:23.650Z,8.00
2023-03-08T16:59:50.404Z,8.00
2023-03-08T17:02:19.802Z,8.00
2023-03-08T17:04:47.551Z,8.00
2023-03-08T17:07:14.950Z,8.00
2023-03-08T17:09:41.736Z,8.10
2023-03-08T17:12:09.182Z,8.10
2023-03-08T17:14:37.780Z,8.10
2023-03-08T17:17:05.198Z,8.10
2023-03-08T17:19:32.086Z,8.10
2023-03-08T17:21:58.974Z,8.20
2023-03-08T17:24:28.092Z,8.20
2023-03-08T17:26:55.901Z,8.20
2023-03-08T17:29:23.093Z,8.20
2023-03-08T17:31:50.451Z,8.20
2023-03-08T17:34:17.969Z,8.20
2023-03-08T17:36:47.844Z,8.20
2023-03-08T17:39:14.897Z,8.20
2023-03-08T17:41:42.959Z,8.20
2023-03-08T17:44:09.738Z,8.20
2023-03-08T17:46:36.518Z,8.20
2023-03-08T17:49:03.897Z,8.20
2023-03-08T17:51:32.221Z,8.20
2023-03-08T17:54:00.957Z,8.20
2023-03-08T17:56:33.726Z,8.20
2023-03-08T17:59:02.235Z,8.20
2023-03-08T18:01:31.160Z,8.20
2023-03-08T18:03:58.677Z,8.10
2023-03-08T18:06:34.538Z,8.10
2023-03-08T18:09:05.261Z,8.10
2023-03-08T18:11:37.971Z,8.10
2023-03-08T18:14:10.618Z,8.00
2023-03-08T18:16:37.981Z,8.00
2023-03-08T18:19:05.838Z,7.90
2023-03-08T18:21:34.744Z,7.90
2023-03-08T18:24:01.545Z,7.90
2023-03-08T18:26:28.625Z,7.80
2023-03-08T18:28:58.964Z,7.80
2023-03-08T18:31:26.594Z,7.80
2023-03-08T18:33:55.226Z,7.80
2023-03-08T18:36:23.256Z,7.80
2023-03-08T18:38:51.339Z,7.80
2023-03-08T18:41:27.330Z,7.80
2023-03-08T18:43:56.541Z,8.00
2023-03-08T18:46:28.943Z,7.90
2023-03-08T18:48:56.215Z,8.00
2023-03-08T18:51:23.124Z,8.00
2023-03-08T18:53:50.075Z,7.80
2023-03-08T18:56:17.614Z,7.90
2023-03-08T18:58:44.378Z,7.90
2023-03-08T19:01:13.964Z,8.00
2023-03-08T19:03:41.415Z,8.00
2023-03-08T19:06:09.403Z,7.90
2023-03-08T19:08:36.375Z,7.80
2023-03-08T19:11:15.067Z,7.80
2023-03-08T19:13:43.375Z,7.60
2023-03-08T19:16:28.305Z,7.50
2023-03-08T19:18:58.092Z,7.50
2023-03-08T19:21:27.670Z,7.50
2023-03-08T19:23:56.490Z,7.50
2023-03-08T19:26:38.921Z,7.40
2023-03-08T19:29:40.970Z,7.40
2023-03-08T19:32:08.590Z,7.40
2023-03-08T19:34:39.890Z,7.40
2023-03-08T19:37:07.528Z,7.40
2023-03-08T19:39:36.651Z,7.30
2023-03-08T19:42:06.688Z,7.30
2023-03-08T19:44:34.187Z,7.40
2023-03-08T19:47:05.867Z,7.40
2023-03-08T19:49:34.592Z,7.40
2023-03-08T19:52:04.676Z,7.50
2023-03-08T19:54:31.856Z,7.60
2023-03-08T19:56:59.544Z,7.60
2023-03-08T19:59:26.749Z,7.70
2023-03-08T20:01:55.198Z,7.70
2023-03-08T20:04:23.635Z,7.70
2023-03-08T20:06:51.803Z,7.70
2023-03-08T20:09:23.938Z,7.70
2023-03-08T20:11:57.148Z,7.70
2023-03-08T20:14:29.047Z,7.80
2023-03-08T20:16:56.327Z,7.80
2023-03-08T20:19:23.645Z,7.90
2023-03-08T20:21:52.370Z,7.90
2023-03-08T20:24:22.417Z,7.90
2023-03-08T20:26:49.367Z,8.00
2023-03-08T20:29:17.590Z,7.90
2023-03-08T20:31:48.143Z,7.90
2023-03-08T20:34:16.355Z,7.90
2023-03-08T20:36:43.963Z,7.80
2023-03-08T20:39:11.102Z,7.80
2023-03-08T20:41:37.820Z,7.90
2023-03-08T20:44:09.194Z,7.80
2023-03-08T20:46:36.116Z,7.90
2023-03-08T20:49:03.476Z,7.90
2023-03-08T20:51:30.283Z,8.00
2023-03-08T20:53:57.346Z,8.00
2023-03-08T20:56:25.453Z,8.00
2023-03-08T20:58:58.316Z,8.10
2023-03-08T21:01:35.867Z,8.10
2023-03-08T21:04:03.879Z,8.10
2023-03-08T21:06:32.842Z,8.10
2023-03-08T21:09:00.440Z,8.10
2023-03-08T21:11:28.664Z,8.10
2023-03-08T21:13:56.581Z,8.10
2023-03-08T21:16:25.897Z,8.20
2023-03-08T21:18:56.457Z,8.20
2023-03-08T21:21:35.757Z,8.20
2023-03-08T21:24:10.366Z,8.20
2023-03-08T21:26:37.216Z,8.20
2023-03-08T21:29:06.593Z,8.30
2023-03-08T21:31:35.406Z,8.30
2023-03-08T21:34:04.060Z,8.40
2023-03-08T21:36:32.414Z,8.40
2023-03-08T21:39:00.873Z,8.40
2023-03-08T21:41:33.774Z,8.50
2023-03-08T21:44:06.285Z,8.50
2023-03-08T21:46:35.230Z,8.50
2023-03-08T21:49:02.480Z,8.50
2023-03-08T21:51:29.520Z,8.50
2023-03-08T21:53:58.005Z,8.50
2023-03-08T21:56:24.745Z,8.60
2023-03-08T21:58:51.850Z,8.60
2023-03-08T22:01:22.526Z,8.60
2023-03-08T22:03:50.164Z,8.60
2023-03-08T22:06:17.340Z,8.60
2023-03-08T22:08:45.998Z,8.50
2023-03-08T22:11:13.425Z,8.50
2023-03-08T22:13:40.295Z,8.50
2023-03-08T22:16:08.032Z,8.50
2023-03-08T22:18:34.870Z,8.50
2023-03-08T22:21:03.123Z,8.30
2023-03-08T22:23:31.735Z,8.30
2023-03-08T22:25:58.431Z,8.30
2023-03-08T22:28:25.228Z,8.20
2023-03-08T22:30:52.070Z,8.20
2023-03-08T22:33:22.614Z,8.10
2023-03-08T22:35:50.914Z,8.10
2023-03-08T22:38:19.348Z,8.10
2023-03-08T22:40:46.133Z,8.10
2023-03-08T22:43:13.037Z,8.10
2023-03-08T22:45:39.891Z,8.10
2023-03-08T22:48:07.943Z,8.20
2023-03-08T22:50:34.864Z,8.20
2023-03-08T22:53:01.713Z,8.20
2023-03-08T22:55:28.731Z,8.20
2023-03-08T22:57:56.960Z,8.30
2023-03-08T23:00:23.980Z,8.30
2023-03-08T23:02:55.321Z,8.30
2023-03-08T23:05:22.349Z,8.40
2023-03-08T23:07:49.213Z,8.40
2023-03-08T23:10:17.167Z,8.50
2023-03-08T23:12:43.893Z,8.50
2023-03-08T23:15:10.943Z,8.50
2023-03-08T23:17:37.685Z,8.60
2023-03-08T23:20:06.074Z,8.50
2023-03-08T23:22:32.953Z,8.50
2023-03-08T23:24:59.719Z,8.60
2023-03-08T23:27:26.841Z,8.60
2023-03-08T23:29:53.742Z,8.60
2023-03-08T23:32:21.346Z,8.60
2023-03-08T23:34:48.108Z,8.60
2023-03-08T23:37:14.993Z,8.60
2023-03-08T23:39:42.793Z,8.60
2023-03-08T23:42:09.455Z,8.60
2023-03-08T23:44:37.803Z,8.50
2023-03-08T23:47:04.718Z,8.50
2023-03-08T23:49:31.806Z,8.50
2023-03-08T23:51:58.695Z,8.50
2023-03-08T23:54:25.421Z,8.50
2023-03-08T23:56:52.161Z,8.40
2023-03-08T23:59:21.881Z,8.50
